sensor_id;sensor_type;location;lat;lon;timestamp;P1;durP1;ratioP1;P2;durP2;ratioP2
651;SDS011;310;48.490;9.200;2023-06-05T00:00:46;78.60;;;2.50;;
651;SDS011;310;48.490;9.200;2023-06-05T00:03:12;78.67;;;2.20;;
651;SDS011;310;48.490;9.200;2023-06-05T00:05:37;78.83;;;2.17;;
651;SDS011;310;48.490;9.200;2023-06-05T00:08:03;78.80;;;2.43;;
651;SDS011;310;48.490;9.200;2023-06-05T00:10:28;79.17;;;2.40;;
651;SDS011;310;48.490;9.200;2023-06-05T00:12:55;78.40;;;2.10;;
651;SDS011;310;48.490;9.200;2023-06-05T00:15:20;79.33;;;2.60;;
651;SDS011;310;48.490;9.200;2023-06-05T00:17:46;78.77;;;2.23;;
651;SDS011;310;48.490;9.200;2023-06-05T00:20:12;79.20;;;2.20;;
651;SDS011;310;48.490;9.200;2023-06-05T00:22:37;79.70;;;2.47;;
651;SDS011;310;48.490;9.200;2023-06-05T00:25:04;79.90;;;2.60;;
651;SDS011;310;48.490;9.200;2023-06-05T00:27:30;79.37;;;2.60;;
651;SDS011;310;48.490;9.200;2023-06-05T00:29:56;79.40;;;2.70;;
651;SDS011;310;48.490;9.200;2023-06-05T00:32:21;79.10;;;2.30;;
651;SDS011;310;48.490;9.200;2023-06-05T00:34:47;78.70;;;2.00;;
651;SDS011;310;48.490;9.200;2023-06-05T00:37:15;79.13;;;2.50;;
651;SDS011;310;48.490;9.200;2023-06-05T00:39:40;80.13;;;2.63;;
651;SDS011;310;48.490;9.200;2023-06-05T00:42:09;79.70;;;2.53;;
651;SDS011;310;48.490;9.200;2023-06-05T00:44:35;79.80;;;2.83;;
651;SDS011;310;48.490;9.200;2023-06-05T00:47:01;79.57;;;2.30;;
651;SDS011;310;48.490;9.200;2023-06-05T00:49:27;79.77;;;2.23;;
651;SDS011;310;48.490;9.200;2023-06-05T00:51:53;79.50;;;2.20;;
651;SDS011;310;48.490;9.200;2023-06-05T00:54:19;80.90;;;2.73;;
651;SDS011;310;48.490;9.200;2023-06-05T00:56:47;79.57;;;2.33;;
651;SDS011;310;48.490;9.200;2023-06-05T00:59:13;79.60;;;2.10;;
651;SDS011;310;48.490;9.200;2023-06-05T01:01:39;81.47;;;2.83;;
651;SDS011;310;48.490;9.200;2023-06-05T01:04:07;80.03;;;2.27;;
651;SDS011;310;48.490;9.200;2023-06-05T01:06:33;80.03;;;2.40;;
651;SDS011;310;48.490;9.200;2023-06-05T01:09:01;80.10;;;2.37;;
651;SDS011;310;48.490;9.200;2023-06-05T01:14:24;79.70;;;1.97;;
651;SDS011;310;48.490;9.200;2023-06-05T01:16:53;80.27;;;2.40;;
651;SDS011;310;48.490;9.200;2023-06-05T01:19:23;80.70;;;2.50;;
651;SDS011;310;48.490;9.200;2023-06-05T01:21:53;80.30;;;2.60;;
651;SDS011;310;48.490;9.200;2023-06-05T01:24:20;80.90;;;2.63;;
651;SDS011;310;48.490;9.200;2023-06-05T01:29:40;80.57;;;2.43;;
651;SDS011;310;48.490;9.200;2023-06-05T01:32:15;80.17;;;2.33;;
651;SDS011;310;48.490;9.200;2023-06-05T01:34:46;81.50;;;2.40;;
651;SDS011;310;48.490;9.200;2023-06-05T01:37:13;80.27;;;2.40;;
651;SDS011;310;48.490;9.200;2023-06-05T01:39:43;79.97;;;2.10;;
651;SDS011;310;48.490;9.200;2023-06-05T01:42:11;98.00;;;3.77;;
651;SDS011;310;48.490;9.200;2023-06-05T01:44:39;80.23;;;2.10;;
651;SDS011;310;48.490;9.200;2023-06-05T01:47:06;80.20;;;2.20;;
651;SDS011;310;48.490;9.200;2023-06-05T01:49:32;81.10;;;2.77;;
651;SDS011;310;48.490;9.200;2023-06-05T01:51:58;80.20;;;2.37;;
651;SDS011;310;48.490;9.200;2023-06-05T01:54:24;80.37;;;2.50;;
651;SDS011;310;48.490;9.200;2023-06-05T01:56:51;80.33;;;2.30;;
651;SDS011;310;48.490;9.200;2023-06-05T01:59:18;80.40;;;2.47;;
651;SDS011;310;48.490;9.200;2023-06-05T02:01:44;80.27;;;2.30;;
651;SDS011;310;48.490;9.200;2023-06-05T02:04:10;81.10;;;2.47;;
651;SDS011;310;48.490;9.200;2023-06-05T02:06:36;80.90;;;2.63;;
651;SDS011;310;48.490;9.200;2023-06-05T02:09:08;80.30;;;2.10;;
651;SDS011;310;48.490;9.200;2023-06-05T02:11:40;80.27;;;2.03;;
651;SDS011;310;48.490;9.200;2023-06-05T02:14:10;80.27;;;2.00;;
651;SDS011;310;48.490;9.200;2023-06-05T02:16:40;81.50;;;2.73;;
651;SDS011;310;48.490;9.200;2023-06-05T02:19:07;80.70;;;2.30;;
651;SDS011;310;48.490;9.200;2023-06-05T02:21:33;80.67;;;2.00;;
651;SDS011;310;48.490;9.200;2023-06-05T02:23:59;80.40;;;1.93;;
651;SDS011;310;48.490;9.200;2023-06-05T02:26:25;80.53;;;2.03;;
651;SDS011;310;48.490;9.200;2023-06-05T02:28:52;82.10;;;2.40;;
651;SDS011;310;48.490;9.200;2023-06-05T02:31:21;80.93;;;2.27;;
651;SDS011;310;48.490;9.200;2023-06-05T02:33:49;80.63;;;2.07;;
651;SDS011;310;48.490;9.200;2023-06-05T02:36:16;81.73;;;2.60;;
651;SDS011;310;48.490;9.200;2023-06-05T02:38:42;81.87;;;2.50;;
651;SDS011;310;48.490;9.200;2023-06-05T02:41:08;81.17;;;2.53;;
651;SDS011;310;48.490;9.200;2023-06-05T02:43:34;81.73;;;2.60;;
651;SDS011;310;48.490;9.200;2023-06-05T02:45:59;81.67;;;2.43;;
651;SDS011;310;48.490;9.200;2023-06-05T02:48:25;82.17;;;2.60;;
651;SDS011;310;48.490;9.200;2023-06-05T02:50:51;81.77;;;2.47;;
651;SDS011;310;48.490;9.200;2023-06-05T02:53:16;81.67;;;2.50;;
651;SDS011;310;48.490;9.200;2023-06-05T02:55:42;81.73;;;2.50;;
651;SDS011;310;48.490;9.200;2023-06-05T02:58:08;81.30;;;2.13;;
651;SDS011;310;48.490;9.200;2023-06-05T03:00:37;82.67;;;3.10;;
651;SDS011;310;48.490;9.200;2023-06-05T03:03:03;80.90;;;1.80;;
651;SDS011;310;48.490;9.200;2023-06-05T03:05:31;84.40;;;2.47;;
651;SDS011;310;48.490;9.200;2023-06-05T03:07:57;82.10;;;2.77;;
651;SDS011;310;48.490;9.200;2023-06-05T03:10:22;82.20;;;2.43;;
651;SDS011;310;48.490;9.200;2023-06-05T03:12:48;82.60;;;2.80;;
651;SDS011;310;48.490;9.200;2023-06-05T03:15:14;82.37;;;2.53;;
651;SDS011;310;48.490;9.200;2023-06-05T03:17:41;81.50;;;2.00;;
651;SDS011;310;48.490;9.200;2023-06-05T03:20:07;81.90;;;2.40;;
651;SDS011;310;48.490;9.200;2023-06-05T03:22:34;81.87;;;2.20;;
651;SDS011;310;48.490;9.200;2023-06-05T03:25:00;81.80;;;2.30;;
651;SDS011;310;48.490;9.200;2023-06-05T03:27:26;82.50;;;2.57;;
651;SDS011;310;48.490;9.200;2023-06-05T03:29:51;81.80;;;2.20;;
651;SDS011;310;48.490;9.200;2023-06-05T03:32:17;82.30;;;2.53;;
651;SDS011;310;48.490;9.200;2023-06-05T03:34:43;81.83;;;2.20;;
651;SDS011;310;48.490;9.200;2023-06-05T03:37:13;82.67;;;2.63;;
651;SDS011;310;48.490;9.200;2023-06-05T03:39:39;82.10;;;2.40;;
651;SDS011;310;48.490;9.200;2023-06-05T03:42:05;83.20;;;2.60;;
651;SDS011;310;48.490;9.200;2023-06-05T03:44:37;82.13;;;2.40;;
651;SDS011;310;48.490;9.200;2023-06-05T03:47:03;81.97;;;2.13;;
651;SDS011;310;48.490;9.200;2023-06-05T03:49:29;81.70;;;1.90;;
651;SDS011;310;48.490;9.200;2023-06-05T03:51:55;82.70;;;2.40;;
651;SDS011;310;48.490;9.200;2023-06-05T03:54:26;82.47;;;2.57;;
651;SDS011;310;48.490;9.200;2023-06-05T03:56:53;82.87;;;2.33;;
651;SDS011;310;48.490;9.200;2023-06-05T03:59:22;82.67;;;2.40;;
651;SDS011;310;48.490;9.200;2023-06-05T04:01:50;82.20;;;2.33;;
651;SDS011;310;48.490;9.200;2023-06-05T04:04:16;82.07;;;2.00;;
651;SDS011;310;48.490;9.200;2023-06-05T04:06:42;82.70;;;2.40;;
651;SDS011;310;48.490;9.200;2023-06-05T04:09:08;82.77;;;2.33;;
651;SDS011;310;48.490;9.200;2023-06-05T04:11:40;83.30;;;2.60;;
651;SDS011;310;48.490;9.200;2023-06-05T04:14:07;83.07;;;2.63;;
651;SDS011;310;48.490;9.200;2023-06-05T04:16:34;82.20;;;2.10;;
651;SDS011;310;48.490;9.200;2023-06-05T04:19:03;82.60;;;2.40;;
651;SDS011;310;48.490;9.200;2023-06-05T04:21:31;83.70;;;2.53;;
651;SDS011;310;48.490;9.200;2023-06-05T04:23:58;82.27;;;2.10;;
651;SDS011;310;48.490;9.200;2023-06-05T04:26:24;82.67;;;2.50;;
651;SDS011;310;48.490;9.200;2023-06-05T04:28:51;82.90;;;2.57;;
651;SDS011;310;48.490;9.200;2023-06-05T04:31:17;82.70;;;2.30;;
651;SDS011;310;48.490;9.200;2023-06-05T04:33:43;82.77;;;2.63;;
651;SDS011;310;48.490;9.200;2023-06-05T04:36:08;82.57;;;2.37;;
651;SDS011;310;48.490;9.200;2023-06-05T04:38:34;82.77;;;2.40;;
651;SDS011;310;48.490;9.200;2023-06-05T04:41:00;82.60;;;2.50;;
651;SDS011;310;48.490;9.200;2023-06-05T04:43:25;82.07;;;1.90;;
651;SDS011;310;48.490;9.200;2023-06-05T04:45:51;82.87;;;2.20;;
651;SDS011;310;48.490;9.200;2023-06-05T04:48:16;82.67;;;2.40;;
651;SDS011;310;48.490;9.200;2023-06-05T04:50:42;83.03;;;2.63;;
651;SDS011;310;48.490;9.200;2023-06-05T04:53:08;82.83;;;2.50;;
651;SDS011;310;48.490;9.200;2023-06-05T04:55:33;82.70;;;2.20;;
651;SDS011;310;48.490;9.200;2023-06-05T04:57:59;82.17;;;2.00;;
651;SDS011;310;48.490;9.200;2023-06-05T05:00:25;83.87;;;2.93;;
651;SDS011;310;48.490;9.200;2023-06-05T05:02:52;82.97;;;2.73;;
651;SDS011;310;48.490;9.200;2023-06-05T05:05:18;82.70;;;2.40;;
651;SDS011;310;48.490;9.200;2023-06-05T05:07:44;84.33;;;3.07;;
651;SDS011;310;48.490;9.200;2023-06-05T05:10:10;83.30;;;2.87;;
651;SDS011;310;48.490;9.200;2023-06-05T05:12:37;82.50;;;2.30;;
651;SDS011;310;48.490;9.200;2023-06-05T05:15:03;82.80;;;2.70;;
651;SDS011;310;48.490;9.200;2023-06-05T05:17:29;83.47;;;2.90;;
651;SDS011;310;48.490;9.200;2023-06-05T05:19:55;82.70;;;2.60;;
651;SDS011;310;48.490;9.200;2023-06-05T05:22:22;82.57;;;2.60;;
651;SDS011;310;48.490;9.200;2023-06-05T05:24:47;83.20;;;2.67;;
651;SDS011;310;48.490;9.200;2023-06-05T05:27:13;83.00;;;2.70;;
651;SDS011;310;48.490;9.200;2023-06-05T05:29:39;82.20;;;2.30;;
651;SDS011;310;48.490;9.200;2023-06-05T05:32:04;82.10;;;2.10;;
651;SDS011;310;48.490;9.200;2023-06-05T05:34:30;83.20;;;2.73;;
651;SDS011;310;48.490;9.200;2023-06-05T05:36:56;87.57;;;3.27;;
651;SDS011;310;48.490;9.200;2023-06-05T05:39:22;92.53;;;3.60;;
651;SDS011;310;48.490;9.200;2023-06-05T05:41:47;82.13;;;2.20;;
651;SDS011;310;48.490;9.200;2023-06-05T05:44:13;83.73;;;3.13;;
651;SDS011;310;48.490;9.200;2023-06-05T05:46:39;82.17;;;2.20;;
651;SDS011;310;48.490;9.200;2023-06-05T05:49:04;83.73;;;3.20;;
651;SDS011;310;48.490;9.200;2023-06-05T05:51:30;82.50;;;2.80;;
651;SDS011;310;48.490;9.200;2023-06-05T05:53:55;82.67;;;2.63;;
651;SDS011;310;48.490;9.200;2023-06-05T05:56:21;82.50;;;2.23;;
651;SDS011;310;48.490;9.200;2023-06-05T05:58:47;85.30;;;2.77;;
651;SDS011;310;48.490;9.200;2023-06-05T06:01:12;82.07;;;2.37;;
651;SDS011;310;48.490;9.200;2023-06-05T06:03:38;81.77;;;2.10;;
651;SDS011;310;48.490;9.200;2023-06-05T06:06:04;83.07;;;3.07;;
651;SDS011;310;48.490;9.200;2023-06-05T06:08:35;81.97;;;2.33;;
651;SDS011;310;48.490;9.200;2023-06-05T06:11:01;81.70;;;2.00;;
651;SDS011;310;48.490;9.200;2023-06-05T06:13:31;84.37;;;3.00;;
651;SDS011;310;48.490;9.200;2023-06-05T06:15:58;81.67;;;2.23;;
651;SDS011;310;48.490;9.200;2023-06-05T06:18:23;82.03;;;2.30;;
651;SDS011;310;48.490;9.200;2023-06-05T06:20:50;82.00;;;2.60;;
651;SDS011;310;48.490;9.200;2023-06-05T06:23:16;82.33;;;2.53;;
651;SDS011;310;48.490;9.200;2023-06-05T06:25:41;81.87;;;2.50;;
651;SDS011;310;48.490;9.200;2023-06-05T06:28:07;82.87;;;2.73;;
651;SDS011;310;48.490;9.200;2023-06-05T06:30:33;84.67;;;2.77;;
651;SDS011;310;48.490;9.200;2023-06-05T06:32:58;81.43;;;2.20;;
651;SDS011;310;48.490;9.200;2023-06-05T06:35:24;81.97;;;2.50;;
651;SDS011;310;48.490;9.200;2023-06-05T06:37:52;82.20;;;2.80;;
651;SDS011;310;48.490;9.200;2023-06-05T06:40:19;81.80;;;2.30;;
651;SDS011;310;48.490;9.200;2023-06-05T06:42:46;82.50;;;2.90;;
651;SDS011;310;48.490;9.200;2023-06-05T06:45:11;81.40;;;2.10;;
651;SDS011;310;48.490;9.200;2023-06-05T06:47:37;81.50;;;2.30;;
651;SDS011;310;48.490;9.200;2023-06-05T06:50:03;81.77;;;2.60;;
651;SDS011;310;48.490;9.200;2023-06-05T06:52:29;81.60;;;2.50;;
651;SDS011;310;48.490;9.200;2023-06-05T06:54:55;81.70;;;2.30;;
651;SDS011;310;48.490;9.200;2023-06-05T06:57:21;82.67;;;2.67;;
651;SDS011;310;48.490;9.200;2023-06-05T06:59:47;81.73;;;2.63;;
651;SDS011;310;48.490;9.200;2023-06-05T07:02:16;81.67;;;2.50;;
651;SDS011;310;48.490;9.200;2023-06-05T07:04:44;85.33;;;2.80;;
651;SDS011;310;48.490;9.200;2023-06-05T07:07:11;81.27;;;2.47;;
651;SDS011;310;48.490;9.200;2023-06-05T07:09:41;80.90;;;2.30;;
651;SDS011;310;48.490;9.200;2023-06-05T07:12:08;81.80;;;2.90;;
651;SDS011;310;48.490;9.200;2023-06-05T07:14:35;81.90;;;2.57;;
651;SDS011;310;48.490;9.200;2023-06-05T07:17:01;81.47;;;2.37;;
651;SDS011;310;48.490;9.200;2023-06-05T07:19:28;81.17;;;2.40;;
651;SDS011;310;48.490;9.200;2023-06-05T07:21:58;81.17;;;2.43;;
651;SDS011;310;48.490;9.200;2023-06-05T07:24:24;81.07;;;2.20;;
651;SDS011;310;48.490;9.200;2023-06-05T07:26:54;81.27;;;2.50;;
651;SDS011;310;48.490;9.200;2023-06-05T07:29:23;80.70;;;2.10;;
651;SDS011;310;48.490;9.200;2023-06-05T07:31:50;80.67;;;2.30;;
651;SDS011;310;48.490;9.200;2023-06-05T07:34:19;80.90;;;2.60;;
651;SDS011;310;48.490;9.200;2023-06-05T07:36:47;81.27;;;2.63;;
651;SDS011;310;48.490;9.200;2023-06-05T07:39:14;80.47;;;2.20;;
651;SDS011;310;48.490;9.200;2023-06-05T07:41:40;80.70;;;2.33;;
651;SDS011;310;48.490;9.200;2023-06-05T07:44:08;93.97;;;3.97;;
651;SDS011;310;48.490;9.200;2023-06-05T07:46:35;80.60;;;2.50;;
651;SDS011;310;48.490;9.200;2023-06-05T07:49:00;80.40;;;2.40;;
651;SDS011;310;48.490;9.200;2023-06-05T07:51:26;79.90;;;2.20;;
651;SDS011;310;48.490;9.200;2023-06-05T07:53:52;80.40;;;2.03;;
651;SDS011;310;48.490;9.200;2023-06-05T07:56:17;79.83;;;2.20;;
651;SDS011;310;48.490;9.200;2023-06-05T07:58:43;79.70;;;2.10;;
651;SDS011;310;48.490;9.200;2023-06-05T08:01:09;79.80;;;2.33;;
651;SDS011;310;48.490;9.200;2023-06-05T08:03:37;80.00;;;2.50;;
651;SDS011;310;48.490;9.200;2023-06-05T08:06:03;79.30;;;2.07;;
651;SDS011;310;48.490;9.200;2023-06-05T08:08:28;79.67;;;2.40;;
651;SDS011;310;48.490;9.200;2023-06-05T08:10:55;80.40;;;2.43;;
651;SDS011;310;48.490;9.200;2023-06-05T08:13:20;80.23;;;2.90;;
651;SDS011;310;48.490;9.200;2023-06-05T08:15:46;79.70;;;2.50;;
651;SDS011;310;48.490;9.200;2023-06-05T08:18:11;79.60;;;2.27;;
651;SDS011;310;48.490;9.200;2023-06-05T08:20:37;79.70;;;2.50;;
651;SDS011;310;48.490;9.200;2023-06-05T08:23:03;79.97;;;2.20;;
651;SDS011;310;48.490;9.200;2023-06-05T08:25:30;79.27;;;2.17;;
651;SDS011;310;48.490;9.200;2023-06-05T08:27:56;79.30;;;2.47;;
651;SDS011;310;48.490;9.200;2023-06-05T08:30:21;79.50;;;2.33;;
651;SDS011;310;48.490;9.200;2023-06-05T08:32:47;79.10;;;2.17;;
651;SDS011;310;48.490;9.200;2023-06-05T08:35:12;79.50;;;2.50;;
651;SDS011;310;48.490;9.200;2023-06-05T08:37:38;79.20;;;2.33;;
651;SDS011;310;48.490;9.200;2023-06-05T08:40:05;79.30;;;2.53;;
651;SDS011;310;48.490;9.200;2023-06-05T08:42:33;79.17;;;2.33;;
651;SDS011;310;48.490;9.200;2023-06-05T08:44:59;78.80;;;2.17;;
651;SDS011;310;48.490;9.200;2023-06-05T08:47:27;81.90;;;2.70;;
651;SDS011;310;48.490;9.200;2023-06-05T08:49:55;79.60;;;2.30;;
651;SDS011;310;48.490;9.200;2023-06-05T08:52:22;78.97;;;2.40;;
651;SDS011;310;48.490;9.200;2023-06-05T08:54:48;79.23;;;2.47;;
651;SDS011;310;48.490;9.200;2023-06-05T08:57:14;78.97;;;2.53;;
651;SDS011;310;48.490;9.200;2023-06-05T08:59:41;78.37;;;1.90;;
651;SDS011;310;48.490;9.200;2023-06-05T09:02:08;78.87;;;2.43;;
651;SDS011;310;48.490;9.200;2023-06-05T09:04:35;78.70;;;2.40;;
651;SDS011;310;48.490;9.200;2023-06-05T09:07:03;79.13;;;2.80;;
651;SDS011;310;48.490;9.200;2023-06-05T09:09:29;78.73;;;2.67;;
651;SDS011;310;48.490;9.200;2023-06-05T09:12:01;78.83;;;2.67;;
651;SDS011;310;48.490;9.200;2023-06-05T09:14:31;78.03;;;2.23;;
651;SDS011;310;48.490;9.200;2023-06-05T09:16:57;101.30;;;2.77;;
651;SDS011;310;48.490;9.200;2023-06-05T09:19:25;78.47;;;2.27;;
651;SDS011;310;48.490;9.200;2023-06-05T09:22:05;79.40;;;2.50;;
651;SDS011;310;48.490;9.200;2023-06-05T09:24:32;78.60;;;2.50;;
651;SDS011;310;48.490;9.200;2023-06-05T09:26:59;78.67;;;2.50;;
651;SDS011;310;48.490;9.200;2023-06-05T09:29:27;79.10;;;2.70;;
651;SDS011;310;48.490;9.200;2023-06-05T09:31:58;78.47;;;2.60;;
651;SDS011;310;48.490;9.200;2023-06-05T09:34:28;78.20;;;2.60;;
651;SDS011;310;48.490;9.200;2023-06-05T09:36:59;78.23;;;2.40;;
651;SDS011;310;48.490;9.200;2023-06-05T09:39:26;78.40;;;2.40;;
651;SDS011;310;48.490;9.200;2023-06-05T09:41:56;78.30;;;2.47;;
651;SDS011;310;48.490;9.200;2023-06-05T09:44:23;77.73;;;2.30;;
651;SDS011;310;48.490;9.200;2023-06-05T09:49:18;78.17;;;2.40;;
651;SDS011;310;48.490;9.200;2023-06-05T09:51:45;77.33;;;2.20;;
651;SDS011;310;48.490;9.200;2023-06-05T09:54:12;78.70;;;2.87;;
651;SDS011;310;48.490;9.200;2023-06-05T09:56:41;77.77;;;2.43;;
651;SDS011;310;48.490;9.200;2023-06-05T09:59:08;79.30;;;2.70;;
651;SDS011;310;48.490;9.200;2023-06-05T10:01:39;78.17;;;2.50;;
651;SDS011;310;48.490;9.200;2023-06-05T10:04:07;77.77;;;2.40;;
651;SDS011;310;48.490;9.200;2023-06-05T10:06:35;77.87;;;2.40;;
651;SDS011;310;48.490;9.200;2023-06-05T10:09:02;78.10;;;2.63;;
651;SDS011;310;48.490;9.200;2023-06-05T10:11:28;77.87;;;2.50;;
651;SDS011;310;48.490;9.200;2023-06-05T10:13:54;77.57;;;2.50;;
651;SDS011;310;48.490;9.200;2023-06-05T10:16:25;77.60;;;2.40;;
651;SDS011;310;48.490;9.200;2023-06-05T10:18:53;78.73;;;2.93;;
651;SDS011;310;48.490;9.200;2023-06-05T10:21:21;77.40;;;2.33;;
651;SDS011;310;48.490;9.200;2023-06-05T10:23:48;78.97;;;2.87;;
651;SDS011;310;48.490;9.200;2023-06-05T10:26:43;76.90;;;2.40;;
651;SDS011;310;48.490;9.200;2023-06-05T10:40:51;76.30;;;2.53;;
651;SDS011;310;48.490;9.200;2023-06-05T10:49:09;75.30;;;2.37;;
651;SDS011;310;48.490;9.200;2023-06-05T10:51:45;76.10;;;2.80;;
651;SDS011;310;48.490;9.200;2023-06-05T10:59:16;75.57;;;2.50;;
651;SDS011;310;48.490;9.200;2023-06-05T11:01:45;76.10;;;2.87;;
651;SDS011;310;48.490;9.200;2023-06-05T11:10:07;74.47;;;2.17;;
651;SDS011;310;48.490;9.200;2023-06-05T11:15:06;74.20;;;2.27;;
651;SDS011;310;48.490;9.200;2023-06-05T11:17:37;75.00;;;2.53;;
651;SDS011;310;48.490;9.200;2023-06-05T11:20:05;74.20;;;2.33;;
651;SDS011;310;48.490;9.200;2023-06-05T11:30:12;73.83;;;2.30;;
651;SDS011;310;48.490;9.200;2023-06-05T11:32:38;73.87;;;2.30;;
651;SDS011;310;48.490;9.200;2023-06-05T11:35:04;74.20;;;2.37;;
651;SDS011;310;48.490;9.200;2023-06-05T11:37:30;74.30;;;2.03;;
651;SDS011;310;48.490;9.200;2023-06-05T11:39:59;74.07;;;2.10;;
651;SDS011;310;48.490;9.200;2023-06-05T11:42:35;73.87;;;2.33;;
651;SDS011;310;48.490;9.200;2023-06-05T11:45:01;73.70;;;2.37;;
651;SDS011;310;48.490;9.200;2023-06-05T11:47:28;73.10;;;2.20;;
651;SDS011;310;48.490;9.200;2023-06-05T11:50:06;72.57;;;2.27;;
651;SDS011;310;48.490;9.200;2023-06-05T11:52:33;72.07;;;2.00;;
651;SDS011;310;48.490;9.200;2023-06-05T11:55:10;72.27;;;2.20;;
651;SDS011;310;48.490;9.200;2023-06-05T11:57:47;71.33;;;2.10;;
651;SDS011;310;48.490;9.200;2023-06-05T12:00:14;70.97;;;2.13;;
651;SDS011;310;48.490;9.200;2023-06-05T12:02:41;70.13;;;2.37;;
651;SDS011;310;48.490;9.200;2023-06-05T12:05:10;71.03;;;2.33;;
651;SDS011;310;48.490;9.200;2023-06-05T12:07:37;78.10;;;2.10;;
651;SDS011;310;48.490;9.200;2023-06-05T12:10:05;69.50;;;2.33;;
651;SDS011;310;48.490;9.200;2023-06-05T12:12:32;69.50;;;2.00;;
651;SDS011;310;48.490;9.200;2023-06-05T12:15:20;69.40;;;2.27;;
651;SDS011;310;48.490;9.200;2023-06-05T12:17:52;69.77;;;2.17;;
651;SDS011;310;48.490;9.200;2023-06-05T12:20:19;68.40;;;2.10;;
651;SDS011;310;48.490;9.200;2023-06-05T12:22:46;68.37;;;2.23;;
651;SDS011;310;48.490;9.200;2023-06-05T12:27:43;67.70;;;1.87;;
651;SDS011;310;48.490;9.200;2023-06-05T12:30:12;68.27;;;2.03;;
651;SDS011;310;48.490;9.200;2023-06-05T12:32:39;68.60;;;2.40;;
651;SDS011;310;48.490;9.200;2023-06-05T12:35:05;67.90;;;2.00;;
651;SDS011;310;48.490;9.200;2023-06-05T12:37:42;68.03;;;2.00;;
651;SDS011;310;48.490;9.200;2023-06-05T12:40:10;68.93;;;2.40;;
651;SDS011;310;48.490;9.200;2023-06-05T12:42:40;68.67;;;2.43;;
651;SDS011;310;48.490;9.200;2023-06-05T12:45:08;68.63;;;2.43;;
651;SDS011;310;48.490;9.200;2023-06-05T12:47:35;71.07;;;2.53;;
651;SDS011;310;48.490;9.200;2023-06-05T12:50:02;70.30;;;2.13;;
651;SDS011;310;48.490;9.200;2023-06-05T12:52:29;68.47;;;2.10;;
651;SDS011;310;48.490;9.200;2023-06-05T12:54:55;68.67;;;2.03;;
651;SDS011;310;48.490;9.200;2023-06-05T12:57:22;67.67;;;1.87;;
651;SDS011;310;48.490;9.200;2023-06-05T12:59:48;68.10;;;2.23;;
651;SDS011;310;48.490;9.200;2023-06-05T13:02:15;67.70;;;2.00;;
651;SDS011;310;48.490;9.200;2023-06-05T13:04:41;67.40;;;1.90;;
651;SDS011;310;48.490;9.200;2023-06-05T13:07:07;67.60;;;2.07;;
651;SDS011;310;48.490;9.200;2023-06-05T13:09:33;68.47;;;2.57;;
651;SDS011;310;48.490;9.200;2023-06-05T13:12:00;68.17;;;2.23;;
651;SDS011;310;48.490;9.200;2023-06-05T13:14:27;67.83;;;1.90;;
651;SDS011;310;48.490;9.200;2023-06-05T13:16:52;67.53;;;2.00;;
651;SDS011;310;48.490;9.200;2023-06-05T13:19:18;68.17;;;2.27;;
651;SDS011;310;48.490;9.200;2023-06-05T13:21:45;68.07;;;2.00;;
651;SDS011;310;48.490;9.200;2023-06-05T13:24:11;68.07;;;2.17;;
651;SDS011;310;48.490;9.200;2023-06-05T13:26:37;68.00;;;2.13;;
651;SDS011;310;48.490;9.200;2023-06-05T13:29:02;68.17;;;2.03;;
651;SDS011;310;48.490;9.200;2023-06-05T13:31:28;68.23;;;1.97;;
651;SDS011;310;48.490;9.200;2023-06-05T13:33:55;69.07;;;2.20;;
651;SDS011;310;48.490;9.200;2023-06-05T13:36:21;68.90;;;2.43;;
651;SDS011;310;48.490;9.200;2023-06-05T13:38:48;69.17;;;2.17;;
651;SDS011;310;48.490;9.200;2023-06-05T13:41:14;67.60;;;1.93;;
651;SDS011;310;48.490;9.200;2023-06-05T13:43:40;68.57;;;2.57;;
651;SDS011;310;48.490;9.200;2023-06-05T13:46:05;68.50;;;2.10;;
651;SDS011;310;48.490;9.200;2023-06-05T13:48:31;68.00;;;2.00;;
651;SDS011;310;48.490;9.200;2023-06-05T13:50:59;69.33;;;2.30;;
651;SDS011;310;48.490;9.200;2023-06-05T13:53:25;68.30;;;2.30;;
651;SDS011;310;48.490;9.200;2023-06-05T13:55:52;68.87;;;2.43;;
651;SDS011;310;48.490;9.200;2023-06-05T13:58:17;68.20;;;2.23;;
651;SDS011;310;48.490;9.200;2023-06-05T14:00:43;68.30;;;2.27;;
651;SDS011;310;48.490;9.200;2023-06-05T14:03:09;68.27;;;2.07;;
651;SDS011;310;48.490;9.200;2023-06-05T14:05:35;68.10;;;1.93;;
651;SDS011;310;48.490;9.200;2023-06-05T14:08:01;68.77;;;2.40;;
651;SDS011;310;48.490;9.200;2023-06-05T14:10:27;68.40;;;2.30;;
651;SDS011;310;48.490;9.200;2023-06-05T14:12:52;68.67;;;2.07;;
651;SDS011;310;48.490;9.200;2023-06-05T14:15:18;68.30;;;2.10;;
651;SDS011;310;48.490;9.200;2023-06-05T14:17:46;68.37;;;2.00;;
651;SDS011;310;48.490;9.200;2023-06-05T14:20:13;68.03;;;1.90;;
651;SDS011;310;48.490;9.200;2023-06-05T14:22:39;68.40;;;2.00;;
651;SDS011;310;48.490;9.200;2023-06-05T14:25:05;68.00;;;2.03;;
651;SDS011;310;48.490;9.200;2023-06-05T14:27:31;68.10;;;1.90;;
651;SDS011;310;48.490;9.200;2023-06-05T14:29:57;68.40;;;2.07;;
651;SDS011;310;48.490;9.200;2023-06-05T14:32:23;67.87;;;2.00;;
651;SDS011;310;48.490;9.200;2023-06-05T14:34:48;67.90;;;1.93;;
651;SDS011;310;48.490;9.200;2023-06-05T14:37:14;67.97;;;1.90;;
651;SDS011;310;48.490;9.200;2023-06-05T14:39:39;68.90;;;2.40;;
651;SDS011;310;48.490;9.200;2023-06-05T14:42:05;68.47;;;2.17;;
651;SDS011;310;48.490;9.200;2023-06-05T14:44:31;69.57;;;2.27;;
651;SDS011;310;48.490;9.200;2023-06-05T14:46:57;68.03;;;2.10;;
651;SDS011;310;48.490;9.200;2023-06-05T14:49:23;67.80;;;1.77;;
651;SDS011;310;48.490;9.200;2023-06-05T14:51:50;68.63;;;2.10;;
651;SDS011;310;48.490;9.200;2023-06-05T14:54:15;67.90;;;1.97;;
651;SDS011;310;48.490;9.200;2023-06-05T14:56:41;67.87;;;2.10;;
651;SDS011;310;48.490;9.200;2023-06-05T14:59:08;69.87;;;2.27;;
651;SDS011;310;48.490;9.200;2023-06-05T15:01:33;68.60;;;1.90;;
651;SDS011;310;48.490;9.200;2023-06-05T15:03:59;68.40;;;1.90;;
651;SDS011;310;48.490;9.200;2023-06-05T15:06:25;68.57;;;2.23;;
651;SDS011;310;48.490;9.200;2023-06-05T15:08:50;68.60;;;2.30;;
651;SDS011;310;48.490;9.200;2023-06-05T15:11:16;69.03;;;2.40;;
651;SDS011;310;48.490;9.200;2023-06-05T15:13:41;70.17;;;2.50;;
651;SDS011;310;48.490;9.200;2023-06-05T15:16:07;68.43;;;2.23;;
651;SDS011;310;48.490;9.200;2023-06-05T15:18:33;68.07;;;1.97;;
651;SDS011;310;48.490;9.200;2023-06-05T15:20:59;68.60;;;2.37;;
651;SDS011;310;48.490;9.200;2023-06-05T15:23:25;68.30;;;2.40;;
651;SDS011;310;48.490;9.200;2023-06-05T15:25:50;68.67;;;2.10;;
651;SDS011;310;48.490;9.200;2023-06-05T15:28:16;68.30;;;2.20;;
651;SDS011;310;48.490;9.200;2023-06-05T15:30:42;68.50;;;2.20;;
651;SDS011;310;48.490;9.200;2023-06-05T15:33:08;68.93;;;2.23;;
651;SDS011;310;48.490;9.200;2023-06-05T15:35:35;68.77;;;2.20;;
651;SDS011;310;48.490;9.200;2023-06-05T15:38:00;68.53;;;2.13;;
651;SDS011;310;48.490;9.200;2023-06-05T15:40:26;86.47;;;2.23;;
651;SDS011;310;48.490;9.200;2023-06-05T15:43:07;69.60;;;2.37;;
651;SDS011;310;48.490;9.200;2023-06-05T15:45:35;68.40;;;1.97;;
651;SDS011;310;48.490;9.200;2023-06-05T15:48:01;69.27;;;2.20;;
651;SDS011;310;48.490;9.200;2023-06-05T15:50:28;68.10;;;1.87;;
651;SDS011;310;48.490;9.200;2023-06-05T15:52:53;68.50;;;2.20;;
651;SDS011;310;48.490;9.200;2023-06-05T15:55:19;68.33;;;1.93;;
651;SDS011;310;48.490;9.200;2023-06-05T15:57:45;68.70;;;2.17;;
651;SDS011;310;48.490;9.200;2023-06-05T16:00:13;70.27;;;2.60;;
651;SDS011;310;48.490;9.200;2023-06-05T16:02:40;68.30;;;2.10;;
651;SDS011;310;48.490;9.200;2023-06-05T16:05:06;68.30;;;2.13;;
651;SDS011;310;48.490;9.200;2023-06-05T16:07:32;69.03;;;2.33;;
651;SDS011;310;48.490;9.200;2023-06-05T16:09:57;68.60;;;2.20;;
651;SDS011;310;48.490;9.200;2023-06-05T16:12:23;70.00;;;2.60;;
651;SDS011;310;48.490;9.200;2023-06-05T16:14:48;69.27;;;2.60;;
651;SDS011;310;48.490;9.200;2023-06-05T16:17:14;68.10;;;1.93;;